Time,TemperatureF,DewpointF,PressureIn,WindDirection,WindDirectionDegrees,WindSpeedMPH,WindSpeedGustMPH,Humidity,HourlyPrecipIn,Conditions,Clouds,dailyrainin,SolarRadiationWatts/m^2,SoftwareType,DateUTC
2013-02-10 00:01:00,47.0,18.0,-100.00,NNW,347,2.0,6.0,31,-99.99,,,-99.99,0.000000,,2013-02-10 08:01:00,
2013-02-10 00:11:00,48.0,18.0,-100.00,NW,324,3.0,8.0,30,-99.99,,,-99.99,0.000000,,2013-02-10 08:11:00,
2013-02-10 00:21:00,48.0,18.0,-100.00,NNW,339,4.0,10.0,30,-99.99,,,-99.99,0.000000,,2013-02-10 08:21:00,
2013-02-10 00:31:00,48.0,18.0,-100.00,NNW,339,4.0,10.0,30,-99.99,,,-99.99,0.000000,,2013-02-10 08:31:00,
2013-02-10 00:43:00,47.0,17.0,-100.00,NNW,343,3.0,7.0,30,-99.99,,,-99.99,0.000000,,2013-02-10 08:43:00,
2013-02-10 00:52:00,47.0,17.0,-100.00,NNW,346,5.0,11.0,30,-99.99,,,-99.99,0.000000,,2013-02-10 08:52:00,
2013-02-10 01:02:00,47.0,17.0,-100.00,NNW,337,5.0,10.0,30,-99.99,,,-99.99,0.000000,,2013-02-10 09:02:00,
2013-02-10 01:11:00,47.0,17.0,-100.00,NNW,339,4.0,11.0,30,-99.99,,,-99.99,0.000000,,2013-02-10 09:11:00,
2013-02-10 01:21:00,46.0,17.0,-100.00,North,353,5.0,11.0,31,-99.99,,,-99.99,0.000000,,2013-02-10 09:21:00,
2013-02-10 01:31:00,46.0,17.0,-100.00,North,353,5.0,11.0,31,-99.99,,,-99.99,0.000000,,2013-02-10 09:31:00,
2013-02-10 01:41:00,46.0,17.0,-100.00,NW,315,3.0,11.0,31,-99.99,,,-99.99,0.000000,,2013-02-10 09:41:00,
2013-02-10 01:51:00,46.0,17.0,-100.00,NW,315,3.0,11.0,31,-99.99,,,-99.99,0.000000,,2013-02-10 09:51:00,
2013-02-10 02:01:00,46.0,16.0,-100.00,NNW,329,4.0,11.0,30,-99.99,,,-99.99,0.000000,,2013-02-10 10:01:00,
2013-02-10 02:11:00,46.0,16.0,-100.00,NNW,329,4.0,11.0,30,-99.99,,,-99.99,0.000000,,2013-02-10 10:11:00,
2013-02-10 02:21:00,45.0,17.0,-100.00,NW,318,4.0,9.0,31,-99.99,,,-99.99,0.000000,,2013-02-10 10:21:00,
2013-02-10 02:31:00,45.0,17.0,-100.00,North,354,4.0,9.0,32,-99.99,,,-99.99,0.000000,,2013-02-10 10:31:00,
2013-02-10 02:41:00,45.0,17.0,-100.00,NW,325,4.0,9.0,32,-99.99,,,-99.99,0.000000,,2013-02-10 10:41:00,
2013-02-10 02:51:00,44.0,16.0,-100.00,North,0,3.0,7.0,32,-99.99,,,-99.99,0.000000,,2013-02-10 10:51:00,
2013-02-10 03:01:00,44.0,16.0,-100.00,North,0,3.0,7.0,32,-99.99,,,-99.99,0.000000,,2013-02-10 11:01:00,
2013-02-10 03:11:00,44.0,17.0,-100.00,North,6,3.0,8.0,33,-99.99,,,-99.99,0.000000,,2013-02-10 11:11:00,
2013-02-10 03:21:00,44.0,17.0,-100.00,NE,37,3.0,6.0,33,-99.99,,,-99.99,0.000000,,2013-02-10 11:21:00,
2013-02-10 03:32:00,44.0,16.0,-100.00,North,0,3.0,6.0,33,-99.99,,,-99.99,0.000000,,2013-02-10 11:32:00,
2013-02-10 03:42:00,44.0,16.0,-100.00,North,1,3.0,7.0,32,-99.99,,,-99.99,0.000000,,2013-02-10 11:42:00,
2013-02-10 03:52:00,44.0,16.0,-100.00,NNE,18,1.0,4.0,32,-99.99,,,-99.99,0.000000,,2013-02-10 11:52:00,
2013-02-10 04:01:00,44.0,16.0,-100.00,North,3,2.0,6.0,32,-99.99,,,-99.99,0.000000,,2013-02-10 12:01:00,
2013-02-10 04:12:00,44.0,15.0,-100.00,NNW,328,5.0,13.0,31,-99.99,,,-99.99,0.000000,,2013-02-10 12:12:00,
2013-02-10 04:21:00,44.0,15.0,-100.00,NNW,328,5.0,13.0,31,-99.99,,,-99.99,0.000000,,2013-02-10 12:21:00,
2013-02-10 04:32:00,44.0,15.0,-100.00,NW,316,5.0,10.0,31,-99.99,,,-99.99,0.000000,,2013-02-10 12:32:00,
2013-02-10 04:41:00,44.0,15.0,-100.00,NW,315,6.0,12.0,31,-99.99,,,-99.99,0.000000,,2013-02-10 12:41:00,
2013-02-10 04:52:00,44.0,14.0,-100.00,NW,320,7.0,14.0,30,-99.99,,,-99.99,0.000000,,2013-02-10 12:52:00,
2013-02-10 05:02:00,44.0,14.0,-100.00,NW,313,6.0,12.0,30,-99.99,,,-99.99,0.000000,,2013-02-10 13:02:00,
2013-02-10 05:11:00,44.0,14.0,-100.00,NNW,329,5.0,10.0,30,-99.99,,,-99.99,0.000000,,2013-02-10 13:11:00,
2013-02-10 05:21:00,44.0,15.0,-100.00,NNW,343,5.0,14.0,31,-99.99,,,-99.99,0.000000,,2013-02-10 13:21:00,
2013-02-10 05:31:00,44.0,15.0,-100.00,NNW,343,5.0,14.0,31,-99.99,,,-99.99,0.000000,,2013-02-10 13:31:00,
2013-02-10 05:41:00,43.0,15.0,-100.00,North,359,5.0,13.0,31,-99.99,,,-99.99,0.000000,,2013-02-10 13:41:00,
2013-02-10 05:52:00,43.0,15.0,-100.00,North,359,5.0,13.0,31,-99.99,,,-99.99,0.000000,,2013-02-10 13:52:00,
2013-02-10 06:02:00,43.0,14.0,-100.00,NNW,344,5.0,11.0,30,-99.99,,,-99.99,0.000000,,2013-02-10 14:02:00,
2013-02-10 06:11:00,43.0,14.0,-100.00,NNW,335,4.0,12.0,30,-99.99,,,-99.99,0.000000,,2013-02-10 14:11:00,
2013-02-10 06:21:00,44.0,14.0,-100.00,NW,319,3.0,6.0,29,-99.99,,,-99.99,0.000000,,2013-02-10 14:21:00,
2013-02-10 06:31:00,44.0,14.0,-100.00,NW,319,3.0,6.0,29,-99.99,,,-99.99,0.000000,,2013-02-10 14:31:00,
2013-02-10 06:41:00,43.0,14.0,-100.00,NW,326,3.0,8.0,30,-99.99,,,-99.99,0.000000,,2013-02-10 14:41:00,
2013-02-10 06:52:00,43.0,14.0,-100.00,NW,326,3.0,8.0,30,-99.99,,,-99.99,0.000000,,2013-02-10 14:52:00,
2013-02-10 07:01:00,43.0,14.0,-100.00,NW,319,5.0,10.0,30,-99.99,,,-99.99,2.000000,,2013-02-10 15:01:00,
2013-02-10 07:11:00,43.0,14.0,-100.00,NW,318,5.0,11.0,31,-99.99,,,-99.99,4.000000,,2013-02-10 15:11:00,
2013-02-10 07:21:00,43.0,14.0,-100.00,NNW,334,4.0,12.0,31,-99.99,,,-99.99,6.000000,,2013-02-10 15:21:00,
2013-02-10 07:31:00,43.0,14.0,-100.00,NNW,334,4.0,12.0,31,-99.99,,,-99.99,6.000000,,2013-02-10 15:31:00,
2013-02-10 07:41:00,43.0,15.0,-100.00,SW,227,3.0,7.0,32,-99.99,,,-99.99,22.000000,,2013-02-10 15:41:00,
2013-02-10 07:51:00,43.0,15.0,-100.00,SW,227,3.0,7.0,32,-99.99,,,-99.99,22.000000,,2013-02-10 15:51:00,
2013-02-10 08:01:00,43.0,15.0,-100.00,SW,227,3.0,7.0,32,-99.99,,,-99.99,22.000000,,2013-02-10 16:01:00,
2013-02-10 08:11:00,43.0,16.0,-100.00,West,281,2.0,5.0,33,-99.99,,,-99.99,61.000000,,2013-02-10 16:11:00,
2013-02-10 08:21:00,43.0,16.0,-100.00,West,281,2.0,5.0,33,-99.99,,,-99.99,61.000000,,2013-02-10 16:21:00,
2013-02-10 08:32:00,43.0,16.0,-100.00,SW,216,1.0,5.0,33,-99.99,,,-99.99,73.000000,,2013-02-10 16:32:00,
2013-02-10 08:42:00,43.0,16.0,-100.00,NW,319,1.0,3.0,32,-99.99,,,-99.99,88.000000,,2013-02-10 16:42:00,
2013-02-10 08:51:00,44.0,16.0,-100.00,NNW,334,2.0,4.0,32,-99.99,,,-99.99,100.000000,,2013-02-10 16:51:00,
2013-02-10 09:01:00,44.0,16.0,-100.00,NNW,334,2.0,4.0,32,-99.99,,,-99.99,100.000000,,2013-02-10 17:01:00,
2013-02-10 09:11:00,44.0,14.0,-100.00,WNW,293,2.0,5.0,29,-99.99,,,-99.99,133.000000,,2013-02-10 17:11:00,
2013-02-10 09:21:00,45.0,14.0,-100.00,West,264,3.0,8.0,28,-99.99,,,-99.99,154.000000,,2013-02-10 17:21:00,
2013-02-10 09:32:00,45.0,14.0,-100.00,West,264,3.0,8.0,28,-99.99,,,-99.99,154.000000,,2013-02-10 17:32:00,
2013-02-10 09:42:00,45.0,15.0,-100.00,NNW,332,4.0,8.0,29,-99.99,,,-99.99,195.000000,,2013-02-10 17:42:00,
2013-02-10 09:52:00,45.0,15.0,-100.00,NNW,332,4.0,8.0,29,-99.99,,,-99.99,195.000000,,2013-02-10 17:52:00,
2013-02-10 10:01:00,45.0,14.0,-100.00,NW,318,4.0,9.0,28,-99.99,,,-99.99,171.000000,,2013-02-10 18:01:00,
2013-02-10 10:11:00,45.0,13.0,-100.00,NW,306,3.0,10.0,27,-99.99,,,-99.99,168.000000,,2013-02-10 18:11:00,
2013-02-10 10:21:00,45.0,13.0,-100.00,NW,326,3.0,10.0,27,-99.99,,,-99.99,182.000000,,2013-02-10 18:21:00,
2013-02-10 10:31:00,46.0,14.0,-100.00,NNW,344,4.0,9.0,27,-99.99,,,-99.99,259.000000,,2013-02-10 18:31:00,
2013-02-10 10:42:00,47.0,14.0,-100.00,WNW,283,3.0,9.0,26,-99.99,,,-99.99,270.000000,,2013-02-10 18:42:00,
2013-02-10 10:52:00,47.0,14.0,-100.00,WNW,283,3.0,9.0,26,-99.99,,,-99.99,270.000000,,2013-02-10 18:52:00,
2013-02-10 11:01:00,48.0,15.0,-100.00,WSW,247,3.0,6.0,26,-99.99,,,-99.99,372.000000,,2013-02-10 19:01:00,
2013-02-10 11:11:00,49.0,14.0,-100.00,SSW,193,4.0,8.0,25,-99.99,,,-99.99,522.000000,,2013-02-10 19:11:00,
2013-02-10 11:21:00,49.0,14.0,-100.00,SSW,204,5.0,10.0,25,-99.99,,,-99.99,294.000000,,2013-02-10 19:21:00,
2013-02-10 11:32:00,49.0,14.0,-100.00,SSW,204,5.0,10.0,25,-99.99,,,-99.99,294.000000,,2013-02-10 19:32:00,
2013-02-10 11:42:00,49.0,15.0,-100.00,SSW,201,2.0,6.0,25,-99.99,,,-99.99,233.000000,,2013-02-10 19:42:00,
2013-02-10 11:51:00,49.0,15.0,-100.00,SSW,201,2.0,6.0,25,-99.99,,,-99.99,233.000000,,2013-02-10 19:51:00,
2013-02-10 12:01:00,49.0,15.0,-100.00,SSW,208,2.0,6.0,25,-99.99,,,-99.99,310.000000,,2013-02-10 20:01:00,
2013-02-10 12:11:00,50.0,14.0,-100.00,SW,220,2.0,5.0,24,-99.99,,,-99.99,338.000000,,2013-02-10 20:11:00,
2013-02-10 12:21:00,50.0,14.0,-100.00,SW,220,2.0,5.0,24,-99.99,,,-99.99,338.000000,,2013-02-10 20:21:00,
2013-02-10 12:32:00,53.0,15.0,-100.00,NW,323,4.0,11.0,22,-99.99,,,-99.99,863.000000,,2013-02-10 20:32:00,
2013-02-10 12:42:00,54.0,15.0,-100.00,NW,310,5.0,11.0,21,-99.99,,,-99.99,900.000000,,2013-02-10 20:42:00,
2013-02-10 12:52:00,54.0,15.0,-100.00,NNW,339,5.0,12.0,21,-99.99,,,-99.99,798.000000,,2013-02-10 20:52:00,
2013-02-10 13:02:00,54.0,15.0,-100.00,NNW,344,8.0,17.0,21,-99.99,,,-99.99,814.000000,,2013-02-10 21:02:00,
2013-02-10 13:11:00,54.0,15.0,-100.00,NNW,340,7.0,17.0,21,-99.99,,,-99.99,904.000000,,2013-02-10 21:11:00,
2013-02-10 13:21:00,55.0,15.0,-100.00,NNW,345,9.0,14.0,20,-99.99,,,-99.99,985.000000,,2013-02-10 21:21:00,
2013-02-10 13:32:00,54.0,15.0,-100.00,North,2,8.0,17.0,21,-99.99,,,-99.99,694.000000,,2013-02-10 21:32:00,
2013-02-10 13:42:00,54.0,15.0,-100.00,North,2,8.0,17.0,21,-99.99,,,-99.99,694.000000,,2013-02-10 21:42:00,
2013-02-10 13:51:00,55.0,14.0,-100.00,North,350,7.0,18.0,20,-99.99,,,-99.99,373.000000,,2013-02-10 21:51:00,
2013-02-10 14:01:00,53.0,14.0,-100.00,NNW,330,7.0,13.0,21,-99.99,,,-99.99,148.000000,,2013-02-10 22:01:00,
2013-02-10 14:11:00,52.0,14.0,-100.00,North,354,7.0,18.0,21,-99.99,,,-99.99,138.000000,,2013-02-10 22:11:00,
2013-02-10 14:21:00,52.0,14.0,-100.00,NNW,347,7.0,12.0,21,-99.99,,,-99.99,102.000000,,2013-02-10 22:21:00,
2013-02-10 14:31:00,52.0,14.0,-100.00,NNW,347,7.0,12.0,21,-99.99,,,-99.99,102.000000,,2013-02-10 22:31:00,
2013-02-10 14:42:00,53.0,14.0,-100.00,NNW,347,6.0,12.0,21,-99.99,,,-99.99,236.000000,,2013-02-10 22:42:00,
2013-02-10 14:52:00,54.0,14.0,-100.00,North,2,6.0,13.0,20,-99.99,,,-99.99,455.000000,,2013-02-10 22:52:00,
2013-02-10 15:01:00,53.0,14.0,-100.00,North,357,6.0,11.0,21,-99.99,,,-99.99,137.000000,,2013-02-10 23:01:00,
2013-02-10 15:11:00,54.0,15.0,-100.00,North,2,5.0,11.0,21,-99.99,,,-99.99,226.000000,,2013-02-10 23:11:00,
2013-02-10 15:21:00,54.0,15.0,-100.00,North,2,5.0,11.0,21,-99.99,,,-99.99,226.000000,,2013-02-10 23:21:00,
2013-02-10 15:31:00,53.0,16.0,-100.00,North,3,5.0,10.0,22,-99.99,,,-99.99,112.000000,,2013-02-10 23:31:00,
2013-02-10 15:41:00,53.0,16.0,-100.00,North,5,6.0,15.0,23,-99.99,,,-99.99,142.000000,,2013-02-10 23:41:00,
2013-02-10 15:52:00,53.0,16.0,-100.00,North,5,6.0,15.0,23,-99.99,,,-99.99,142.000000,,2013-02-10 23:52:00,
2013-02-10 16:01:00,53.0,17.0,-100.00,NNE,15,6.0,13.0,24,-99.99,,,-99.99,165.000000,,2013-02-11 00:01:00,
2013-02-10 16:11:00,53.0,17.0,-100.00,NNE,15,6.0,13.0,24,-99.99,,,-99.99,165.000000,,2013-02-11 00:11:00,
2013-02-10 16:22:00,52.0,16.0,-100.00,NNE,12,4.0,9.0,23,-99.99,,,-99.99,123.000000,,2013-02-11 00:22:00,
2013-02-10 16:32:00,52.0,18.0,-100.00,NE,43,4.0,8.0,25,-99.99,,,-99.99,131.000000,,2013-02-11 00:32:00,
2013-02-10 16:42:00,52.0,18.0,-100.00,NE,43,4.0,8.0,25,-99.99,,,-99.99,131.000000,,2013-02-11 00:42:00,
2013-02-10 16:51:00,52.0,19.0,-100.00,NE,54,2.0,5.0,27,-99.99,,,-99.99,104.000000,,2013-02-11 00:51:00,
2013-02-10 17:01:00,52.0,19.0,-100.00,NE,54,2.0,5.0,27,-99.99,,,-99.99,73.000000,,2013-02-11 01:01:00,
2013-02-10 17:11:00,51.0,19.0,-100.00,NE,46,2.0,5.0,27,-99.99,,,-99.99,78.000000,,2013-02-11 01:11:00,
2013-02-10 17:21:00,52.0,15.0,-100.00,North,357,5.0,13.0,23,-99.99,,,-99.99,79.000000,,2013-02-11 01:21:00,
2013-02-10 17:32:00,52.0,15.0,-100.00,North,357,5.0,13.0,23,-99.99,,,-99.99,79.000000,,2013-02-11 01:32:00,
2013-02-10 17:41:00,51.0,16.0,-100.00,North,9,4.0,8.0,24,-99.99,,,-99.99,25.000000,,2013-02-11 01:41:00,
2013-02-10 17:52:00,51.0,16.0,-100.00,North,9,4.0,8.0,24,-99.99,,,-99.99,25.000000,,2013-02-11 01:52:00,
2013-02-10 18:01:00,51.0,16.0,-100.00,NNW,345,4.0,10.0,24,-99.99,,,-99.99,9.000000,,2013-02-11 02:01:00,
2013-02-10 18:11:00,51.0,16.0,-100.00,North,355,3.0,7.0,25,-99.99,,,-99.99,2.000000,,2013-02-11 02:11:00,
2013-02-10 18:21:00,51.0,17.0,-100.00,North,11,2.0,6.0,26,-99.99,,,-99.99,0.000000,,2013-02-11 02:21:00,
2013-02-10 18:31:00,50.0,20.0,-100.00,NE,54,3.0,6.0,30,-99.99,,,-99.99,0.000000,,2013-02-11 02:31:00,
2013-02-10 18:42:00,50.0,20.0,-100.00,NE,43,2.0,4.0,31,-99.99,,,-99.99,0.000000,,2013-02-11 02:42:00,
2013-02-10 18:52:00,49.0,21.0,-100.00,NE,53,3.0,5.0,32,-99.99,,,-99.99,0.000000,,2013-02-11 02:52:00,
2013-02-10 19:01:00,49.0,20.0,-100.00,NE,50,2.0,4.0,32,-99.99,,,-99.99,0.000000,,2013-02-11 03:01:00,
2013-02-10 19:11:00,49.0,20.0,-100.00,NNE,27,3.0,6.0,32,-99.99,,,-99.99,0.000000,,2013-02-11 03:11:00,
2013-02-10 19:21:00,49.0,20.0,-100.00,NNE,27,3.0,6.0,32,-99.99,,,-99.99,0.000000,,2013-02-11 03:21:00,
2013-02-10 19:31:00,49.0,20.0,-100.00,NE,49,3.0,6.0,32,-99.99,,,-99.99,0.000000,,2013-02-11 03:31:00,
2013-02-10 19:41:00,48.0,21.0,-100.00,NE,47,3.0,7.0,33,-99.99,,,-99.99,0.000000,,2013-02-11 03:41:00,
2013-02-10 19:52:00,48.0,22.0,-100.00,NE,37,4.0,8.0,35,-99.99,,,-99.99,0.000000,,2013-02-11 03:52:00,
2013-02-10 20:01:00,48.0,22.0,-100.00,NE,37,4.0,8.0,35,-99.99,,,-99.99,0.000000,,2013-02-11 04:01:00,
2013-02-10 20:11:00,47.0,23.0,-100.00,NE,53,2.0,4.0,38,-99.99,,,-99.99,0.000000,,2013-02-11 04:11:00,
2013-02-10 20:21:00,47.0,23.0,-100.00,NE,53,2.0,4.0,38,-99.99,,,-99.99,0.000000,,2013-02-11 04:21:00,
2013-02-10 20:31:00,47.0,24.0,-100.00,NE,49,2.0,3.0,39,-99.99,,,-99.99,0.000000,,2013-02-11 04:31:00,
2013-02-10 20:42:00,47.0,24.0,-100.00,NE,35,2.0,5.0,40,-99.99,,,-99.99,0.000000,,2013-02-11 04:42:00,
2013-02-10 20:51:00,47.0,24.0,-100.00,NE,35,2.0,5.0,40,-99.99,,,-99.99,0.000000,,2013-02-11 04:51:00,
2013-02-10 21:01:00,47.0,24.0,-100.00,NNE,24,2.0,6.0,40,-99.99,,,-99.99,0.000000,,2013-02-11 05:01:00,
2013-02-10 21:11:00,47.0,25.0,-100.00,North,4,3.0,5.0,42,-99.99,,,-99.99,0.000000,,2013-02-11 05:11:00,
2013-02-10 21:22:00,47.0,26.0,-100.00,NNE,18,3.0,5.0,44,-99.99,,,-99.99,0.000000,,2013-02-11 05:22:00,
2013-02-10 21:31:00,47.0,26.0,-100.00,NNE,18,3.0,5.0,44,-99.99,,,-99.99,0.000000,,2013-02-11 05:31:00,
2013-02-10 21:41:00,46.0,26.0,-100.00,NNE,19,3.0,5.0,44,-99.99,,,-99.99,0.000000,,2013-02-11 05:41:00,
2013-02-10 21:52:00,46.0,26.0,-100.00,NNE,20,2.0,5.0,44,-99.99,,,-99.99,0.000000,,2013-02-11 05:52:00,
2013-02-10 22:01:00,46.0,26.0,-100.00,NE,40,2.0,6.0,44,-99.99,,,-99.99,0.000000,,2013-02-11 06:01:00,
2013-02-10 22:11:00,46.0,26.0,-100.00,NE,54,2.0,5.0,46,-99.99,,,-99.99,0.000000,,2013-02-11 06:11:00,
2013-02-10 22:21:00,45.0,25.0,-100.00,NE,51,3.0,6.0,44,-99.99,,,-99.99,0.000000,,2013-02-11 06:21:00,
2013-02-10 22:32:00,45.0,25.0,-100.00,NE,51,3.0,6.0,44,-99.99,,,-99.99,0.000000,,2013-02-11 06:32:00,
2013-02-10 22:42:00,45.0,24.0,-100.00,NE,42,3.0,4.0,44,-99.99,,,-99.99,0.000000,,2013-02-11 06:42:00,
2013-02-10 22:51:00,45.0,25.0,-100.00,NNE,23,2.0,3.0,44,-99.99,,,-99.99,0.000000,,2013-02-11 06:51:00,
2013-02-10 23:01:00,45.0,25.0,-100.00,NE,35,1.0,3.0,44,-99.99,,,-99.99,0.000000,,2013-02-11 07:01:00,
2013-02-10 23:11:00,45.0,25.0,-100.00,NE,35,1.0,3.0,44,-99.99,,,-99.99,0.000000,,2013-02-11 07:11:00,
2013-02-10 23:21:00,45.0,24.0,-100.00,NE,49,1.0,3.0,44,-99.99,,,-99.99,0.000000,,2013-02-11 07:21:00,
2013-02-10 23:32:00,45.0,25.0,-100.00,NE,44,2.0,4.0,45,-99.99,,,-99.99,0.000000,,2013-02-11 07:32:00,
2013-02-10 23:41:00,45.0,25.0,-100.00,NE,53,3.0,6.0,46,-99.99,,,-99.99,0.000000,,2013-02-11 07:41:00,
2013-02-10 23:51:00,45.0,25.0,-100.00,NE,53,3.0,6.0,46,-99.99,,,-99.99,0.000000,,2013-02-11 07:51:00,